sensor_id;sensor_type;location;lat;lon;timestamp;pressure;altitude;pressure_sealevel;temperature;humidity
38530;BME280;24301;54.332;48.386;2023-12-04T00:01:14;97742.56;;;-3.44;100.00
38530;BME280;24301;54.332;48.386;2023-12-04T00:03:41;97722.16;;;-3.37;100.00
38530;BME280;24301;54.332;48.386;2023-12-04T00:06:08;97719.66;;;-3.35;100.00
38530;BME280;24301;54.332;48.386;2023-12-04T00:08:35;97710.31;;;-3.30;100.00
38530;BME280;24301;54.332;48.386;2023-12-04T00:11:01;97702.53;;;-3.33;100.00
38530;BME280;24301;54.332;48.386;2023-12-04T00:13:28;97715.47;;;-3.30;100.00
38530;BME280;24301;54.332;48.386;2023-12-04T00:15:53;97724.91;;;-3.29;100.00
38530;BME280;24301;54.332;48.386;2023-12-04T00:18:20;97729.22;;;-3.28;100.00
38530;BME280;24301;54.332;48.386;2023-12-04T00:20:49;97713.00;;;-3.25;100.00
38530;BME280;24301;54.332;48.386;2023-12-04T00:23:15;97708.69;;;-3.26;100.00
38530;BME280;24301;54.332;48.386;2023-12-04T00:25:41;97701.03;;;-3.22;100.00
38530;BME280;24301;54.332;48.386;2023-12-04T00:28:07;97707.13;;;-3.17;100.00
38530;BME280;24301;54.332;48.386;2023-12-04T00:30:33;97693.47;;;-3.15;100.00
38530;BME280;24301;54.332;48.386;2023-12-04T00:32:59;97695.22;;;-3.14;100.00
38530;BME280;24301;54.332;48.386;2023-12-04T00:35:28;97684.19;;;-3.07;100.00
38530;BME280;24301;54.332;48.386;2023-12-04T00:37:54;97671.44;;;-3.03;100.00
38530;BME280;24301;54.332;48.386;2023-12-04T00:40:20;97655.19;;;-3.00;100.00
38530;BME280;24301;54.332;48.386;2023-12-04T00:42:46;97672.28;;;-3.02;100.00
38530;BME280;24301;54.332;48.386;2023-12-04T00:45:12;97680.91;;;-3.00;100.00
38530;BME280;24301;54.332;48.386;2023-12-04T00:47:38;97671.66;;;-2.90;100.00
38530;BME280;24301;54.332;48.386;2023-12-04T00:50:05;97655.34;;;-2.91;100.00
38530;BME280;24301;54.332;48.386;2023-12-04T00:52:31;97650.19;;;-2.91;100.00
38530;BME280;24301;54.332;48.386;2023-12-04T00:54:57;97654.53;;;-2.88;100.00
38530;BME280;24301;54.332;48.386;2023-12-04T00:57:23;97656.34;;;-2.82;100.00
38530;BME280;24301;54.332;48.386;2023-12-04T00:59:49;97658.03;;;-2.84;100.00
38530;BME280;24301;54.332;48.386;2023-12-04T01:02:15;97646.97;;;-2.80;100.00
38530;BME280;24301;54.332;48.386;2023-12-04T01:04:44;97658.94;;;-2.82;100.00
38530;BME280;24301;54.332;48.386;2023-12-04T01:07:10;97632.47;;;-2.75;100.00
38530;BME280;24301;54.332;48.386;2023-12-04T01:09:36;97634.22;;;-2.72;100.00
38530;BME280;24301;54.332;48.386;2023-12-04T01:12:02;97622.31;;;-2.67;100.00
38530;BME280;24301;54.332;48.386;2023-12-04T01:14:31;97621.59;;;-2.58;100.00
38530;BME280;24301;54.332;48.386;2023-12-04T01:16:58;97611.31;;;-2.57;100.00
38530;BME280;24301;54.332;48.386;2023-12-04T01:19:24;97628.69;;;-2.42;100.00
38530;BME280;24301;54.332;48.386;2023-12-04T01:21:53;97632.28;;;-2.34;100.00
38530;BME280;24301;54.332;48.386;2023-12-04T01:24:19;97618.66;;;-2.26;100.00
38530;BME280;24301;54.332;48.386;2023-12-04T01:26:45;97620.44;;;-2.22;100.00
38530;BME280;24301;54.332;48.386;2023-12-04T01:29:11;97602.44;;;-2.19;100.00
38530;BME280;24301;54.332;48.386;2023-12-04T01:31:37;97621.56;;;-2.03;100.00
38530;BME280;24301;54.332;48.386;2023-12-04T01:34:02;97613.13;;;-1.91;100.00
38530;BME280;24301;54.332;48.386;2023-12-04T01:36:28;97614.03;;;-1.89;100.00
38530;BME280;24301;54.332;48.386;2023-12-04T01:38:55;97614.03;;;-1.89;100.00
38530;BME280;24301;54.332;48.386;2023-12-04T01:41:20;97633.88;;;-1.82;100.00
38530;BME280;24301;54.332;48.386;2023-12-04T01:43:46;97630.59;;;-1.70;100.00
38530;BME280;24301;54.332;48.386;2023-12-04T01:46:15;97603.13;;;-1.68;100.00
38530;BME280;24301;54.332;48.386;2023-12-04T01:48:45;97611.72;;;-1.69;100.00
38530;BME280;24301;54.332;48.386;2023-12-04T01:51:12;97611.81;;;-1.61;100.00
38530;BME280;24301;54.332;48.386;2023-12-04T01:53:40;97604.16;;;-1.53;100.00
38530;BME280;24301;54.332;48.386;2023-12-04T01:56:08;97610.31;;;-1.42;100.00
38530;BME280;24301;54.332;48.386;2023-12-04T01:58:34;97611.28;;;-1.32;100.00
38530;BME280;24301;54.332;48.386;2023-12-04T02:01:01;97603.59;;;-1.27;100.00
38530;BME280;24301;54.332;48.386;2023-12-04T02:03:27;97603.66;;;-1.23;100.00
38530;BME280;24301;54.332;48.386;2023-12-04T02:05:54;97598.53;;;-1.20;100.00
38530;BME280;24301;54.332;48.386;2023-12-04T02:08:20;97613.25;;;-1.12;100.00
38530;BME280;24301;54.332;48.386;2023-12-04T02:10:47;97588.31;;;-1.10;100.00
38530;BME280;24301;54.332;48.386;2023-12-04T02:13:13;97608.13;;;-1.06;100.00
38530;BME280;24301;54.332;48.386;2023-12-04T02:15:39;97608.19;;;-1.00;100.00
38530;BME280;24301;54.332;48.386;2023-12-04T02:18:05;97603.06;;;-0.97;100.00
38530;BME280;24301;54.332;48.386;2023-12-04T02:20:34;97593.59;;;-0.95;100.00
38530;BME280;24301;54.332;48.386;2023-12-04T02:23:01;97597.03;;;-0.96;100.00
38530;BME280;24301;54.332;48.386;2023-12-04T02:25:28;97585.00;;;-0.94;100.00
38530;BME280;24301;54.332;48.386;2023-12-04T02:27:57;97606.63;;;-0.85;100.00
38530;BME280;24301;54.332;48.386;2023-12-04T02:30:26;97598.88;;;-0.85;100.00
38530;BME280;24301;54.332;48.386;2023-12-04T02:32:54;97594.50;;;-0.90;100.00
38530;BME280;24301;54.332;48.386;2023-12-04T02:35:23;97595.44;;;-0.84;100.00
38530;BME280;24301;54.332;48.386;2023-12-04T02:37:51;97590.31;;;-0.81;100.00
38530;BME280;24301;54.332;48.386;2023-12-04T02:40:18;97593.72;;;-0.81;100.00
38530;BME280;24301;54.332;48.386;2023-12-04T02:42:45;97602.34;;;-0.80;100.00
38530;BME280;24301;54.332;48.386;2023-12-04T02:45:11;97601.50;;;-0.79;100.00
38530;BME280;24301;54.332;48.386;2023-12-04T02:47:37;97595.50;;;-0.78;100.00
38530;BME280;24301;54.332;48.386;2023-12-04T02:50:04;97588.66;;;-0.70;100.00
38530;BME280;24301;54.332;48.386;2023-12-04T02:52:31;97577.44;;;-0.75;100.00
38530;BME280;24301;54.332;48.386;2023-12-04T02:54:57;97576.66;;;-0.66;100.00
38530;BME280;24301;54.332;48.386;2023-12-04T02:57:23;97579.25;;;-0.65;100.00
38530;BME280;24301;54.332;48.386;2023-12-04T02:59:49;97580.97;;;-0.65;100.00
38530;BME280;24301;54.332;48.386;2023-12-04T03:02:15;97571.53;;;-0.63;100.00
38530;BME280;24301;54.332;48.386;2023-12-04T03:04:41;97574.16;;;-0.59;100.00
38530;BME280;24301;54.332;48.386;2023-12-04T03:07:07;97595.69;;;-0.56;100.00
38530;BME280;24301;54.332;48.386;2023-12-04T03:09:33;97589.66;;;-0.55;100.00
38530;BME280;24301;54.332;48.386;2023-12-04T03:11:59;97598.31;;;-0.50;100.00
38530;BME280;24301;54.332;48.386;2023-12-04T03:14:25;97579.41;;;-0.48;100.00
38530;BME280;24301;54.332;48.386;2023-12-04T03:16:51;97587.13;;;-0.46;100.00
38530;BME280;24301;54.332;48.386;2023-12-04T03:19:17;97581.09;;;-0.48;100.00
38530;BME280;24301;54.332;48.386;2023-12-04T03:21:43;97598.31;;;-0.47;100.00
38530;BME280;24301;54.332;48.386;2023-12-04T03:24:09;97588.00;;;-0.44;100.00
38530;BME280;24301;54.332;48.386;2023-12-04T03:26:35;97584.56;;;-0.43;100.00
38530;BME280;24301;54.332;48.386;2023-12-04T03:29:01;97594.06;;;-0.44;100.00
38530;BME280;24301;54.332;48.386;2023-12-04T03:31:27;97593.25;;;-0.38;100.00
38530;BME280;24301;54.332;48.386;2023-12-04T03:33:54;97593.25;;;-0.38;100.00
38530;BME280;24301;54.332;48.386;2023-12-04T03:36:20;97586.34;;;-0.37;100.00
38530;BME280;24301;54.332;48.386;2023-12-04T03:38:46;97602.69;;;-0.38;100.00
38530;BME280;24301;54.332;48.386;2023-12-04T03:41:15;97606.97;;;-0.39;100.00
38530;BME280;24301;54.332;48.386;2023-12-04T03:43:42;97610.41;;;-0.40;100.00
38530;BME280;24301;54.332;48.386;2023-12-04T03:46:08;97613.03;;;-0.38;100.00
38530;BME280;24301;54.332;48.386;2023-12-04T03:48:34;97619.09;;;-0.35;100.00
38530;BME280;24301;54.332;48.386;2023-12-04T03:51:00;97613.03;;;-0.35;100.00
38530;BME280;24301;54.332;48.386;2023-12-04T03:53:26;97611.38;;;-0.32;100.00
38530;BME280;24301;54.332;48.386;2023-12-04T03:55:52;97598.44;;;-0.30;100.00
38530;BME280;24301;54.332;48.386;2023-12-04T03:58:18;97610.50;;;-0.29;100.00
38530;BME280;24301;54.332;48.386;2023-12-04T04:00:44;97626.00;;;-0.29;100.00
38530;BME280;24301;54.332;48.386;2023-12-04T04:03:10;97629.47;;;-0.28;100.00
38530;BME280;24301;54.332;48.386;2023-12-04T04:05:36;97628.63;;;-0.24;100.00
38530;BME280;24301;54.332;48.386;2023-12-04T04:08:02;97624.31;;;-0.25;100.00
38530;BME280;24301;54.332;48.386;2023-12-04T04:10:32;97612.25;;;-0.26;100.00
38530;BME280;24301;54.332;48.386;2023-12-04T04:12:58;97616.59;;;-0.22;100.00
38530;BME280;24301;54.332;48.386;2023-12-04T04:15:24;97606.25;;;-0.24;100.00
38530;BME280;24301;54.332;48.386;2023-12-04T04:17:50;97620.88;;;-0.24;100.00
38530;BME280;24301;54.332;48.386;2023-12-04T04:20:16;97609.66;;;-0.28;100.00
38530;BME280;24301;54.332;48.386;2023-12-04T04:22:43;97620.91;;;-0.23;100.00
38530;BME280;24301;54.332;48.386;2023-12-04T04:25:09;97623.47;;;-0.23;100.00
38530;BME280;24301;54.332;48.386;2023-12-04T04:27:36;97614.00;;;-0.22;100.00
38530;BME280;24301;54.332;48.386;2023-12-04T04:30:02;97595.06;;;-0.21;100.00
38530;BME280;24301;54.332;48.386;2023-12-04T04:32:31;97614.03;;;-0.21;100.00
38530;BME280;24301;54.332;48.386;2023-12-04T04:34:57;97617.47;;;-0.20;100.00
38530;BME280;24301;54.332;48.386;2023-12-04T04:37:23;97610.56;;;-0.18;100.00
38530;BME280;24301;54.332;48.386;2023-12-04T04:39:50;97601.97;;;-0.17;100.00
38530;BME280;24301;54.332;48.386;2023-12-04T04:42:16;97618.34;;;-0.17;100.00
38530;BME280;24301;54.332;48.386;2023-12-04T04:44:42;97631.25;;;-0.18;100.00
38530;BME280;24301;54.332;48.386;2023-12-04T04:47:08;97611.47;;;-0.18;100.00
38530;BME280;24301;54.332;48.386;2023-12-04T04:49:34;97618.38;;;-0.13;100.00
38530;BME280;24301;54.332;48.386;2023-12-04T04:52:00;97618.38;;;-0.10;100.00
38530;BME280;24301;54.332;48.386;2023-12-04T04:54:25;97622.72;;;-0.06;100.00
38530;BME280;24301;54.332;48.386;2023-12-04T04:56:51;97629.59;;;-0.05;100.00
38530;BME280;24301;54.332;48.386;2023-12-04T04:59:17;97627.94;;;-0.02;100.00
38530;BME280;24301;54.332;48.386;2023-12-04T05:01:43;97630.53;;;0.00;100.00
38530;BME280;24301;54.332;48.386;2023-12-04T05:04:09;97621.03;;;-0.01;100.00
38530;BME280;24301;54.332;48.386;2023-12-04T05:06:35;97640.00;;;-0.01;100.00
38530;BME280;24301;54.332;48.386;2023-12-04T05:09:01;97646.88;;;-0.03;100.00
38530;BME280;24301;54.332;48.386;2023-12-04T05:11:27;97644.28;;;-0.03;100.00
38530;BME280;24301;54.332;48.386;2023-12-04T05:13:53;97650.31;;;-0.02;100.00
38530;BME280;24301;54.332;48.386;2023-12-04T05:16:19;97655.50;;;-0.01;100.00
38530;BME280;24301;54.332;48.386;2023-12-04T05:18:45;97646.00;;;-0.02;100.00
38530;BME280;24301;54.332;48.386;2023-12-04T05:21:11;97653.81;;;0.03;100.00
38530;BME280;24301;54.332;48.386;2023-12-04T05:23:38;97660.69;;;0.06;100.00
38530;BME280;24301;54.332;48.386;2023-12-04T05:26:07;97662.44;;;0.08;100.00
38530;BME280;24301;54.332;48.386;2023-12-04T05:28:34;97665.88;;;0.07;100.00
38530;BME280;24301;54.332;48.386;2023-12-04T05:31:00;97664.16;;;0.08;100.00
38530;BME280;24301;54.332;48.386;2023-12-04T05:33:26;97672.75;;;0.07;100.00
38530;BME280;24301;54.332;48.386;2023-12-04T05:35:53;97675.34;;;0.10;100.00
38530;BME280;24301;54.332;48.386;2023-12-04T05:38:19;97680.59;;;0.13;100.00
38530;BME280;24301;54.332;48.386;2023-12-04T05:40:45;97683.13;;;0.10;100.00
38530;BME280;24301;54.332;48.386;2023-12-04T05:43:11;97715.00;;;0.12;100.00
38530;BME280;24301;54.332;48.386;2023-12-04T05:45:38;97706.41;;;0.11;100.00
38530;BME280;24301;54.332;48.386;2023-12-04T05:48:05;97705.56;;;0.14;100.00
38530;BME280;24301;54.332;48.386;2023-12-04T05:50:31;97702.09;;;0.10;100.00
38530;BME280;24301;54.332;48.386;2023-12-04T05:52:57;97719.25;;;0.04;100.00
38530;BME280;24301;54.332;48.386;2023-12-04T05:55:24;97710.63;;;0.02;100.00
38530;BME280;24301;54.332;48.386;2023-12-04T05:57:50;97696.84;;;-0.01;100.00
38530;BME280;24301;54.332;48.386;2023-12-04T06:00:18;97727.94;;;0.12;100.00
38530;BME280;24301;54.332;48.386;2023-12-04T06:02:44;97705.59;;;0.17;100.00
38530;BME280;24301;54.332;48.386;2023-12-04T06:05:11;97694.38;;;0.20;100.00
38530;BME280;24301;54.332;48.386;2023-12-04T06:07:37;97672.13;;;0.42;100.00
38530;BME280;24301;54.332;48.386;2023-12-04T06:10:04;97689.31;;;0.35;100.00
38530;BME280;24301;54.332;48.386;2023-12-04T06:12:32;97701.38;;;0.33;100.00
38530;BME280;24301;54.332;48.386;2023-12-04T06:14:58;97694.47;;;0.29;100.00
38530;BME280;24301;54.332;48.386;2023-12-04T06:17:25;97705.63;;;0.26;100.00
38530;BME280;24301;54.332;48.386;2023-12-04T06:19:53;97692.69;;;0.25;100.00
38530;BME280;24301;54.332;48.386;2023-12-04T06:22:19;97701.34;;;0.27;100.00
38530;BME280;24301;54.332;48.386;2023-12-04T06:24:48;97703.94;;;0.32;100.00
38530;BME280;24301;54.332;48.386;2023-12-04T06:27:16;97725.47;;;0.31;100.00
38530;BME280;24301;54.332;48.386;2023-12-04T06:29:44;97728.94;;;0.28;100.00
38530;BME280;24301;54.332;48.386;2023-12-04T06:32:11;97730.59;;;0.18;100.00
38530;BME280;24301;54.332;48.386;2023-12-04T06:34:37;97735.75;;;0.18;100.00
38530;BME280;24301;54.332;48.386;2023-12-04T06:37:06;97760.75;;;0.24;100.00
38530;BME280;24301;54.332;48.386;2023-12-04T06:39:37;97755.63;;;0.25;100.00
38530;BME280;24301;54.332;48.386;2023-12-04T06:42:07;97761.63;;;0.21;100.00
38530;BME280;24301;54.332;48.386;2023-12-04T06:44:34;97746.09;;;0.23;100.00
38530;BME280;24301;54.332;48.386;2023-12-04T06:47:00;97764.19;;;0.20;100.00
38530;BME280;24301;54.332;48.386;2023-12-04T06:49:31;97750.41;;;0.21;100.00
38530;BME280;24301;54.332;48.386;2023-12-04T06:51:57;97756.44;;;0.21;100.00
38530;BME280;24301;54.332;48.386;2023-12-04T06:54:23;97770.22;;;0.19;100.00
38530;BME280;24301;54.332;48.386;2023-12-04T06:56:50;97759.84;;;0.16;100.00
38530;BME280;24301;54.332;48.386;2023-12-04T06:59:20;97787.44;;;0.18;100.00
38530;BME280;24301;54.332;48.386;2023-12-04T07:01:46;97781.50;;;0.27;100.00
38530;BME280;24301;54.332;48.386;2023-12-04T07:04:13;97784.13;;;0.33;100.00
38530;BME280;24301;54.332;48.386;2023-12-04T07:06:39;97787.53;;;0.29;100.00
38530;BME280;24301;54.332;48.386;2023-12-04T07:09:06;97791.78;;;0.22;100.00
38530;BME280;24301;54.332;48.386;2023-12-04T07:11:35;97803.03;;;0.26;100.00
38530;BME280;24301;54.332;48.386;2023-12-04T07:14:01;97791.88;;;0.33;100.00
38530;BME280;24301;54.332;48.386;2023-12-04T07:16:28;97797.91;;;0.32;100.00
38530;BME280;24301;54.332;48.386;2023-12-04T07:18:55;97807.41;;;0.36;100.00
38530;BME280;24301;54.332;48.386;2023-12-04T07:21:21;97797.13;;;0.41;100.00
38530;BME280;24301;54.332;48.386;2023-12-04T07:23:47;97810.00;;;0.38;100.00
38530;BME280;24301;54.332;48.386;2023-12-04T07:26:13;97790.13;;;0.31;100.00
38530;BME280;24301;54.332;48.386;2023-12-04T07:28:39;97803.91;;;0.33;100.00
38530;BME280;24301;54.332;48.386;2023-12-04T07:31:05;97804.00;;;0.42;100.00
38530;BME280;24301;54.332;48.386;2023-12-04T07:33:31;97799.72;;;0.46;100.00
38530;BME280;24301;54.332;48.386;2023-12-04T07:35:57;97810.13;;;0.52;100.00
38530;BME280;24301;54.332;48.386;2023-12-04T07:38:23;97817.03;;;0.53;100.00
38530;BME280;24301;54.332;48.386;2023-12-04T07:40:49;97811.81;;;0.50;100.00
38530;BME280;24301;54.332;48.386;2023-12-04T07:43:15;97832.53;;;0.54;100.00
38530;BME280;24301;54.332;48.386;2023-12-04T07:45:41;97820.41;;;0.49;100.00
38530;BME280;24301;54.332;48.386;2023-12-04T07:48:07;97835.09;;;0.51;100.00
38530;BME280;24301;54.332;48.386;2023-12-04T07:50:34;97829.91;;;0.48;100.00
38530;BME280;24301;54.332;48.386;2023-12-04T07:53:00;97841.94;;;0.43;100.00
38530;BME280;24301;54.332;48.386;2023-12-04T07:55:26;97833.31;;;0.41;100.00
38530;BME280;24301;54.332;48.386;2023-12-04T07:57:52;97854.03;;;0.44;97.08
38530;BME280;24301;54.332;48.386;2023-12-04T08:00:18;97853.19;;;0.50;98.26
38530;BME280;24301;54.332;48.386;2023-12-04T08:02:45;97867.91;;;0.57;99.46
38530;BME280;24301;54.332;48.386;2023-12-04T08:05:12;97853.19;;;0.50;97.32
38530;BME280;24301;54.332;48.386;2023-12-04T08:07:39;97851.41;;;0.41;97.72
38530;BME280;24301;54.332;48.386;2023-12-04T08:10:06;97864.25;;;0.30;97.42
38530;BME280;24301;54.332;48.386;2023-12-04T08:12:32;97874.44;;;0.13;95.02
38530;BME280;24301;54.332;48.386;2023-12-04T08:15:00;97869.16;;;0.04;94.37
38530;BME280;24301;54.332;48.386;2023-12-04T08:17:33;97874.22;;;-0.07;90.44
38530;BME280;24301;54.332;48.386;2023-12-04T08:19:59;97863.91;;;-0.06;89.77
38530;BME280;24301;54.332;48.386;2023-12-04T08:22:26;97864.78;;;-0.04;92.03
38530;BME280;24301;54.332;48.386;2023-12-04T08:24:52;97871.69;;;-0.01;91.42
38530;BME280;24301;54.332;48.386;2023-12-04T08:27:19;97872.53;;;-0.04;90.42
38530;BME280;24301;54.332;48.386;2023-12-04T08:29:45;97865.59;;;-0.11;90.05
38530;BME280;24301;54.332;48.386;2023-12-04T08:32:11;97875.81;;;-0.19;88.65
38530;BME280;24301;54.332;48.386;2023-12-04T08:34:38;97858.50;;;-0.27;86.75
38530;BME280;24301;54.332;48.386;2023-12-04T08:37:04;97864.56;;;-0.25;87.94
38530;BME280;24301;54.332;48.386;2023-12-04T08:39:30;97866.22;;;-0.29;87.22
38530;BME280;24301;54.332;48.386;2023-12-04T08:41:56;97854.97;;;-0.36;86.32
38530;BME280;24301;54.332;48.386;2023-12-04T08:44:22;97863.50;;;-0.40;86.24
38530;BME280;24301;54.332;48.386;2023-12-04T08:46:48;97857.50;;;-0.40;87.94
38530;BME280;24301;54.332;48.386;2023-12-04T08:49:14;97861.84;;;-0.38;87.03
38530;BME280;24301;54.332;48.386;2023-12-04T08:51:40;97863.59;;;-0.34;87.47
38530;BME280;24301;54.332;48.386;2023-12-04T08:54:06;97852.31;;;-0.42;87.80
38530;BME280;24301;54.332;48.386;2023-12-04T08:56:33;97862.41;;;-0.62;85.82
38530;BME280;24301;54.332;48.386;2023-12-04T08:58:59;97875.09;;;-0.79;85.22
38530;BME280;24301;54.332;48.386;2023-12-04T09:01:25;97861.16;;;-0.91;86.44
38530;BME280;24301;54.332;48.386;2023-12-04T09:03:52;97861.94;;;-0.99;86.45
38530;BME280;24301;54.332;48.386;2023-12-04T09:06:18;97856.56;;;-1.13;84.45
38530;BME280;24301;54.332;48.386;2023-12-04T09:08:44;97878.94;;;-1.12;84.94
38530;BME280;24301;54.332;48.386;2023-12-04T09:11:11;97867.53;;;-1.27;83.58
38530;BME280;24301;54.332;48.386;2023-12-04T09:13:37;97871.84;;;-1.26;84.99
38530;BME280;24301;54.332;48.386;2023-12-04T09:16:05;97880.38;;;-1.30;83.62
38530;BME280;24301;54.332;48.386;2023-12-04T09:18:31;97863.94;;;-1.37;83.07
38530;BME280;24301;54.332;48.386;2023-12-04T09:20:58;97869.06;;;-1.40;82.85
38530;BME280;24301;54.332;48.386;2023-12-04T09:23:24;97874.25;;;-1.38;84.25
38530;BME280;24301;54.332;48.386;2023-12-04T09:25:51;97889.59;;;-1.45;82.13
38530;BME280;24301;54.332;48.386;2023-12-04T09:28:17;97890.31;;;-1.53;80.92
38530;BME280;24301;54.332;48.386;2023-12-04T09:30:43;97889.38;;;-1.59;81.22
38530;BME280;24301;54.332;48.386;2023-12-04T09:33:09;97904.00;;;-1.57;81.93
38530;BME280;24301;54.332;48.386;2023-12-04T09:35:35;97901.38;;;-1.62;80.99
38530;BME280;24301;54.332;48.386;2023-12-04T09:38:01;97876.13;;;-1.80;78.10
38530;BME280;24301;54.332;48.386;2023-12-04T09:40:27;97912.00;;;-1.91;78.62
38530;BME280;24301;54.332;48.386;2023-12-04T09:42:53;97921.47;;;-1.90;78.95
38530;BME280;24301;54.332;48.386;2023-12-04T09:45:19;97918.00;;;-1.92;79.92
38530;BME280;24301;54.332;48.386;2023-12-04T09:47:48;97909.22;;;-2.04;77.74
38530;BME280;24301;54.332;48.386;2023-12-04T09:50:16;97886.88;;;-2.05;78.78
38530;BME280;24301;54.332;48.386;2023-12-04T09:52:49;97907.38;;;-2.11;78.63
38530;BME280;24301;54.332;48.386;2023-12-04T09:55:19;97903.94;;;-2.10;79.24
38530;BME280;24301;54.332;48.386;2023-12-04T09:57:46;97904.84;;;-2.06;79.72
38530;BME280;24301;54.332;48.386;2023-12-04T10:00:16;97915.41;;;-1.92;79.01
38530;BME280;24301;54.332;48.386;2023-12-04T10:02:43;97898.22;;;-1.93;78.04
38530;BME280;24301;54.332;48.386;2023-12-04T10:05:09;97909.50;;;-1.86;79.20
38530;BME280;24301;54.332;48.386;2023-12-04T10:07:35;97912.25;;;-1.79;79.10
38530;BME280;24301;54.332;48.386;2023-12-04T10:10:04;97914.03;;;-1.75;78.42
38530;BME280;24301;54.332;48.386;2023-12-04T10:12:35;97923.50;;;-1.74;78.36
38530;BME280;24301;54.332;48.386;2023-12-04T10:15:12;97927.75;;;-1.76;77.28
38530;BME280;24301;54.332;48.386;2023-12-04T10:17:41;97922.50;;;-1.80;75.98
38530;BME280;24301;54.332;48.386;2023-12-04T10:20:14;97944.00;;;-1.80;76.88
38530;BME280;24301;54.332;48.386;2023-12-04T10:22:59;97923.44;;;-1.77;74.20
38530;BME280;24301;54.332;48.386;2023-12-04T10:25:29;97944.75;;;-1.85;75.05
38530;BME280;24301;54.332;48.386;2023-12-04T10:28:10;97938.75;;;-1.86;74.83
38530;BME280;24301;54.332;48.386;2023-12-04T10:30:36;97943.97;;;-1.81;76.11
38530;BME280;24301;54.332;48.386;2023-12-04T10:33:07;97922.50;;;-1.82;75.53
38530;BME280;24301;54.332;48.386;2023-12-04T10:35:35;97940.47;;;-1.85;75.21
38530;BME280;24301;54.332;48.386;2023-12-04T10:38:06;97949.09;;;-1.83;75.67
38530;BME280;24301;54.332;48.386;2023-12-04T10:40:34;97932.81;;;-1.80;75.74
38530;BME280;24301;54.332;48.386;2023-12-04T10:43:19;97946.47;;;-1.86;73.89
38530;BME280;24301;54.332;48.386;2023-12-04T10:45:47;97952.53;;;-1.84;74.93
38530;BME280;24301;54.332;48.386;2023-12-04T10:48:15;97958.53;;;-1.83;75.10
38530;BME280;24301;54.332;48.386;2023-12-04T10:50:47;97950.91;;;-1.79;74.87
38530;BME280;24301;54.332;48.386;2023-12-04T10:53:15;97949.91;;;-1.87;72.27
38530;BME280;24301;54.332;48.386;2023-12-04T10:55:41;97929.13;;;-1.95;72.50
38530;BME280;24301;54.332;48.386;2023-12-04T10:58:13;97945.22;;;-2.07;71.21
38530;BME280;24301;54.332;48.386;2023-12-04T11:00:47;97936.44;;;-2.17;72.09
38530;BME280;24301;54.332;48.386;2023-12-04T11:03:32;97938.75;;;-2.31;71.23
38530;BME280;24301;54.332;48.386;2023-12-04T11:06:01;97947.25;;;-2.35;72.90
38530;BME280;24301;54.332;48.386;2023-12-04T11:08:34;97947.06;;;-2.42;72.41
38530;BME280;24301;54.332;48.386;2023-12-04T11:11:03;97954.75;;;-2.44;72.62
38530;BME280;24301;54.332;48.386;2023-12-04T11:13:32;97950.44;;;-2.47;72.21
38530;BME280;24301;54.332;48.386;2023-12-04T11:16:06;97966.72;;;-2.46;71.84
38530;BME280;24301;54.332;48.386;2023-12-04T11:18:36;97946.00;;;-2.52;71.32
38530;BME280;24301;54.332;48.386;2023-12-04T11:21:08;97941.56;;;-2.60;70.37
38530;BME280;24301;54.332;48.386;2023-12-04T11:23:34;97953.31;;;-2.71;69.84
38530;BME280;24301;54.332;48.386;2023-12-04T11:26:02;97977.72;;;-2.93;69.47
38530;BME280;24301;54.332;48.386;2023-12-04T11:28:30;97970.56;;;-3.05;70.55
38530;BME280;24301;54.332;48.386;2023-12-04T11:30:57;97984.47;;;-2.97;71.34
38530;BME280;24301;54.332;48.386;2023-12-04T11:33:24;97986.22;;;-2.96;71.91
38530;BME280;24301;54.332;48.386;2023-12-04T11:35:50;97978.09;;;-3.13;71.10
38530;BME280;24301;54.332;48.386;2023-12-04T11:38:17;97989.03;;;-3.22;71.33
38530;BME280;24301;54.332;48.386;2023-12-04T11:40:43;97990.63;;;-3.27;70.94
38530;BME280;24301;54.332;48.386;2023-12-04T11:45:49;97954.22;;;-3.44;69.13
38530;BME280;24301;54.332;48.386;2023-12-04T11:48:15;97970.19;;;-3.56;68.67
38530;BME280;24301;54.332;48.386;2023-12-04T11:50:43;97965.53;;;-3.69;68.07
38530;BME280;24301;54.332;48.386;2023-12-04T11:53:11;97993.72;;;-3.72;68.11
38530;BME280;24301;54.332;48.386;2023-12-04T11:55:41;97986.03;;;-3.72;68.19
38530;BME280;24301;54.332;48.386;2023-12-04T11:58:11;98009.06;;;-3.76;68.32
38530;BME280;24301;54.332;48.386;2023-12-04T12:00:37;98016.44;;;-3.88;67.88
38530;BME280;24301;54.332;48.386;2023-12-04T12:03:07;98010.34;;;-3.92;68.12
38530;BME280;24301;54.332;48.386;2023-12-04T12:05:36;98019.50;;;-4.01;66.95
38530;BME280;24301;54.332;48.386;2023-12-04T12:08:05;98048.47;;;-4.06;68.55
38530;BME280;24301;54.332;48.386;2023-12-04T12:10:32;98045.81;;;-4.09;68.29
38530;BME280;24301;54.332;48.386;2023-12-04T12:12:58;98043.34;;;-4.06;68.94
38530;BME280;24301;54.332;48.386;2023-12-04T12:15:25;98049.25;;;-4.08;68.59
38530;BME280;24301;54.332;48.386;2023-12-04T12:17:51;98061.19;;;-4.10;69.26
38530;BME280;24301;54.332;48.386;2023-12-04T12:20:18;98075.84;;;-4.06;68.92
38530;BME280;24301;54.332;48.386;2023-12-04T12:22:44;98084.44;;;-4.06;69.59
38530;BME280;24301;54.332;48.386;2023-12-04T12:25:11;98084.69;;;-3.96;70.00
38530;BME280;24301;54.332;48.386;2023-12-04T12:27:38;98082.72;;;-4.05;69.92
38530;BME280;24301;54.332;48.386;2023-12-04T12:30:05;98098.19;;;-4.04;70.52
38530;BME280;24301;54.332;48.386;2023-12-04T12:32:32;98112.53;;;-4.10;70.46
38530;BME280;24301;54.332;48.386;2023-12-04T12:34:58;98101.44;;;-4.09;70.98
38530;BME280;24301;54.332;48.386;2023-12-04T12:37:25;98107.13;;;-4.20;71.64
38530;BME280;24301;54.332;48.386;2023-12-04T12:39:51;98108.69;;;-4.25;71.92
38530;BME280;24301;54.332;48.386;2023-12-04T12:42:25;98111.16;;;-4.28;72.44
38530;BME280;24301;54.332;48.386;2023-12-04T12:44:51;98095.53;;;-4.36;72.41
38530;BME280;24301;54.332;48.386;2023-12-04T12:47:19;98099.44;;;-4.47;72.08